createdAt,value
2019-03-26T00:02:19.134Z,91.80
2019-03-26T00:07:23.283Z,91.80
2019-03-26T00:12:28.330Z,91.90
2019-03-26T00:17:33.275Z,92.10
2019-03-26T00:22:37.725Z,92.30
2019-03-26T00:27:43.251Z,92.40
2019-03-26T00:32:48.465Z,92.50
2019-03-26T00:37:52.597Z,92.70
2019-03-26T00:42:58.125Z,92.80
2019-03-26T00:48:02.468Z,92.80
2019-03-26T00:53:08.118Z,92.90
2019-03-26T00:58:13.328Z,93.00
2019-03-26T01:03:17.483Z,93.10
2019-03-26T01:08:22.279Z,93.20
2019-03-26T01:13:26.709Z,93.10
2019-03-26T01:18:31.427Z,93.20
2019-03-26T01:23:35.984Z,93.30
2019-03-26T01:28:44.792Z,93.30
2019-03-26T01:33:49.719Z,93.40
2019-03-26T01:38:53.844Z,93.40
2019-03-26T01:43:59.598Z,93.20
2019-03-26T01:49:04.393Z,93.20
2019-03-26T01:54:11.682Z,93.00
2019-03-26T01:59:20.100Z,93.00
2019-03-26T02:04:25.125Z,93.00
2019-03-26T02:09:30.825Z,93.20
2019-03-26T02:14:35.965Z,93.50
2019-03-26T02:19:40.890Z,93.40
2019-03-26T02:24:45.329Z,93.50
2019-03-26T02:29:51.222Z,93.50
2019-03-26T02:34:56.542Z,93.50
2019-03-26T02:40:00.774Z,93.30
2019-03-26T02:45:05.699Z,93.40
2019-03-26T02:50:10.484Z,93.40
2019-03-26T02:55:16.777Z,93.40
2019-03-26T03:00:21.885Z,93.30
2019-03-26T03:05:34.928Z,93.30
2019-03-26T03:10:34.890Z,93.30
2019-03-26T03:15:39.425Z,93.20
2019-03-26T03:21:03.430Z,93.20
2019-03-26T03:26:07.624Z,93.60
2019-03-26T03:31:12.645Z,93.10
2019-03-26T03:36:18.261Z,93.00
2019-03-26T03:41:22.968Z,92.90
2019-03-26T03:46:29.953Z,92.80
2019-03-26T03:51:37.930Z,93.00
2019-03-26T03:56:44.069Z,93.20
2019-03-26T04:01:48.241Z,93.10
2019-03-26T04:06:52.611Z,93.20
2019-03-26T04:11:57.326Z,93.10
2019-03-26T04:17:01.478Z,92.90
2019-03-26T04:22:06.381Z,92.90
2019-03-26T04:27:11.148Z,93.00
2019-03-26T04:32:15.280Z,93.10
2019-03-26T04:37:20.038Z,92.90
2019-03-26T04:42:24.180Z,92.90
2019-03-26T04:47:29.404Z,92.80
2019-03-26T04:52:34.413Z,92.80
2019-03-26T04:57:39.461Z,92.80
2019-03-26T05:02:44.468Z,92.50
2019-03-26T05:07:50.108Z,92.80
2019-03-26T05:12:54.297Z,92.80
2019-03-26T05:17:59.510Z,92.70
2019-03-26T05:23:03.728Z,93.00
2019-03-26T05:28:07.872Z,93.10
2019-03-26T05:33:12.888Z,93.00
2019-03-26T05:38:16.988Z,92.50
2019-03-26T05:43:21.124Z,92.40
2019-03-26T05:48:26.815Z,92.40
2019-03-26T05:53:31.895Z,92.50
2019-03-26T05:58:36.174Z,92.10
2019-03-26T06:03:40.729Z,92.00
2019-03-26T06:08:45.154Z,92.20
2019-03-26T06:13:49.287Z,92.10
2019-03-26T06:18:54.494Z,92.10
2019-03-26T06:23:59.044Z,92.30
2019-03-26T06:29:03.977Z,92.10
2019-03-26T06:34:10.637Z,91.90
2019-03-26T06:39:14.879Z,90.70
2019-03-26T06:44:19.057Z,91.00
2019-03-26T06:49:24.385Z,91.20
2019-03-26T06:54:29.001Z,91.10
2019-03-26T06:59:33.933Z,91.00
2019-03-26T07:04:45.236Z,90.60
2019-03-26T07:09:49.397Z,89.70
2019-03-26T07:14:54.367Z,89.50
2019-03-26T07:19:58.942Z,89.00
2019-03-26T07:25:06.086Z,85.90
2019-03-26T07:30:15.851Z,85.40
2019-03-26T07:35:21.459Z,84.00
2019-03-26T07:40:25.601Z,81.90
2019-03-26T07:45:49.818Z,84.60
2019-03-26T07:50:55.689Z,82.60
2019-03-26T07:56:00.597Z,81.20
2019-03-26T08:01:05.102Z,82.10
2019-03-26T08:06:10.071Z,83.90
2019-03-26T08:11:14.627Z,84.00
2019-03-26T08:16:19.114Z,83.60
2019-03-26T08:21:23.350Z,84.00
2019-03-26T08:26:27.425Z,84.40
2019-03-26T08:31:35.437Z,83.60
2019-03-26T08:36:40.453Z,83.70
2019-03-26T08:41:44.546Z,83.20
2019-03-26T08:46:48.902Z,81.10
2019-03-26T08:51:54.354Z,81.70
2019-03-26T08:56:58.462Z,81.60
2019-03-26T09:02:03.798Z,81.50
2019-03-26T09:07:10.925Z,81.40
2019-03-26T09:12:15.320Z,80.70
2019-03-26T09:17:20.088Z,80.00
2019-03-26T09:22:24.319Z,80.30
2019-03-26T09:27:28.699Z,80.10
2019-03-26T09:32:35.417Z,79.60
2019-03-26T09:37:39.626Z,76.70
2019-03-26T09:42:43.752Z,77.80
2019-03-26T09:47:48.101Z,79.40
2019-03-26T09:52:52.223Z,79.90
2019-03-26T09:57:57.135Z,78.00
2019-03-26T10:03:01.434Z,75.50
2019-03-26T10:08:05.691Z,72.40
2019-03-26T10:13:10.244Z,71.00
2019-03-26T10:18:16.190Z,69.00
2019-03-26T10:23:20.637Z,69.40
2019-03-26T10:28:26.092Z,70.60
2019-03-26T10:33:30.204Z,71.50
2019-03-26T10:38:34.334Z,72.60
2019-03-26T10:43:40.019Z,73.10
2019-03-26T10:48:44.439Z,73.90
2019-03-26T10:53:48.603Z,75.30
2019-03-26T10:58:52.798Z,75.70
2019-03-26T11:03:57.965Z,76.20
2019-03-26T11:09:03.158Z,75.60
2019-03-26T11:14:08.886Z,75.90
2019-03-26T11:19:13.185Z,75.60
2019-03-26T11:24:17.362Z,75.20
2019-03-26T11:29:23.311Z,76.60
2019-03-26T11:34:27.428Z,79.70
2019-03-26T11:39:33.558Z,79.20
2019-03-26T11:44:37.823Z,75.30
2019-03-26T11:49:42.775Z,70.20
2019-03-26T11:54:47.016Z,64.70
2019-03-26T11:59:51.240Z,59.80
2019-03-26T12:04:56.174Z,58.70
2019-03-26T12:10:00.497Z,59.20
2019-03-26T12:15:05.677Z,59.30
2019-03-26T12:20:09.895Z,68.60
2019-03-26T12:25:15.961Z,72.30
2019-03-26T12:30:33.381Z,72.00
2019-03-26T12:35:38.385Z,69.00
2019-03-26T12:40:44.241Z,66.70
2019-03-26T12:45:49.039Z,61.50
2019-03-26T12:50:53.251Z,61.70
2019-03-26T12:55:59.045Z,62.60
2019-03-26T13:01:04.289Z,63.00
2019-03-26T13:06:10.217Z,62.10
2019-03-26T13:11:16.902Z,59.80
2019-03-26T13:16:20.362Z,59.20
2019-03-26T13:21:24.903Z,59.30
2019-03-26T13:26:29.807Z,58.50
2019-03-26T13:31:34.125Z,58.80
2019-03-26T13:36:38.219Z,60.60
2019-03-26T13:41:43.207Z,62.50
2019-03-26T13:46:48.186Z,64.60
2019-03-26T13:51:52.378Z,66.30
2019-03-26T13:56:57.511Z,70.90
2019-03-26T14:02:01.646Z,77.50
2019-03-26T14:07:07.096Z,77.80
2019-03-26T14:12:12.091Z,77.20
2019-03-26T14:17:16.687Z,73.10
2019-03-26T14:22:20.800Z,70.00
2019-03-26T14:27:24.932Z,68.00
2019-03-26T14:32:29.053Z,68.10
2019-03-26T14:37:33.190Z,69.60
2019-03-26T14:42:39.193Z,70.40
2019-03-26T14:47:44.338Z,77.00
2019-03-26T14:52:48.581Z,80.30
2019-03-26T14:57:53.850Z,83.90
2019-03-26T15:02:57.953Z,90.00
2019-03-26T15:08:02.297Z,90.30
2019-03-26T15:13:06.447Z,91.10
2019-03-26T15:18:12.166Z,92.30
2019-03-26T15:23:16.375Z,93.30
2019-03-26T15:28:20.765Z,93.20
2019-03-26T15:33:25.625Z,93.40
2019-03-26T15:38:30.692Z,93.80
2019-03-26T15:43:35.752Z,93.30
2019-03-26T15:48:40.009Z,94.00
2019-03-26T15:53:44.129Z,93.60
2019-03-26T15:58:48.265Z,93.40
2019-03-26T16:03:52.531Z,93.10
2019-03-26T16:08:57.783Z,93.20
2019-03-26T16:14:01.923Z,92.40
2019-03-26T16:19:06.051Z,92.00
2019-03-26T16:24:10.846Z,91.80
2019-03-26T16:29:15.119Z,91.60
2019-03-26T16:34:20.099Z,90.40
2019-03-26T16:39:24.220Z,90.20
2019-03-26T16:44:28.348Z,88.70
2019-03-26T16:49:34.183Z,87.10
2019-03-26T16:54:38.323Z,88.70
2019-03-26T16:59:44.207Z,91.00
2019-03-26T17:04:48.351Z,92.30
2019-03-26T17:09:52.470Z,92.40
2019-03-26T17:14:56.602Z,92.60
2019-03-26T17:20:01.461Z,91.50
2019-03-26T17:25:06.902Z,91.30
2019-03-26T17:30:11.226Z,92.00
2019-03-26T17:35:15.407Z,91.20
2019-03-26T17:40:20.948Z,91.30
2019-03-26T17:45:25.195Z,90.70
2019-03-26T17:50:29.499Z,91.10
2019-03-26T17:55:34.493Z,90.80
2019-03-26T18:00:42.777Z,90.70
2019-03-26T18:05:46.996Z,91.10
2019-03-26T18:20:59.524Z,91.40
2019-03-26T18:31:10.296Z,91.60
2019-03-26T18:36:14.417Z,91.90
2019-03-26T18:41:19.058Z,92.00
2019-03-26T18:46:23.247Z,92.10
2019-03-26T18:51:28.744Z,92.00
2019-03-26T18:56:33.141Z,92.00
2019-03-26T19:01:38.539Z,91.60
2019-03-26T19:11:47.714Z,91.30
2019-03-26T19:27:04.241Z,91.80
2019-03-26T19:32:09.604Z,92.00
2019-03-26T19:37:13.835Z,92.20
2019-03-26T19:42:18.307Z,92.40
2019-03-26T19:57:30.556Z,92.60
2019-03-26T20:02:34.707Z,92.50
2019-03-26T20:07:39.103Z,92.80
2019-03-26T20:12:45.047Z,93.00
2019-03-26T20:17:50.138Z,92.90
2019-03-26T20:22:54.257Z,91.40
2019-03-26T20:33:02.898Z,90.90
2019-03-26T20:38:07.323Z,91.10
2019-03-26T20:48:17.176Z,90.70
2019-03-26T20:53:27.693Z,90.40
2019-03-26T20:58:32.260Z,91.60
2019-03-26T21:03:36.502Z,90.80
2019-03-26T21:08:41.025Z,90.00
2019-03-26T21:13:50.878Z,90.30
2019-03-26T21:18:51.970Z,89.40
2019-03-26T21:23:56.071Z,86.90
2019-03-26T21:29:00.200Z,87.40
2019-03-26T21:34:04.549Z,87.40
2019-03-26T21:39:09.033Z,86.70
2019-03-26T21:44:15.773Z,87.10
2019-03-26T21:49:20.744Z,86.90
2019-03-26T21:54:25.123Z,86.20
2019-03-26T21:59:29.526Z,85.90
2019-03-26T22:04:34.212Z,86.40
2019-03-26T22:09:38.387Z,86.90
2019-03-26T22:14:42.512Z,86.70
2019-03-26T22:19:46.650Z,87.20
2019-03-26T22:24:50.798Z,87.50
2019-03-26T22:29:55.063Z,87.50
2019-03-26T22:40:07.336Z,86.60
2019-03-26T22:45:13.422Z,87.20
2019-03-26T22:50:18.264Z,87.90
2019-03-26T22:55:22.400Z,87.50
2019-03-26T23:00:29.033Z,88.00
2019-03-26T23:05:53.090Z,87.80
2019-03-26T23:11:10.175Z,88.90
2019-03-26T23:16:15.073Z,88.80
2019-03-26T23:21:20.123Z,88.90
2019-03-26T23:26:24.837Z,89.70
2019-03-26T23:31:29.332Z,90.10
2019-03-26T23:36:33.669Z,90.30
2019-03-26T23:41:39.787Z,90.40
2019-03-26T23:46:43.990Z,90.50
2019-03-26T23:51:48.455Z,90.50
2019-03-26T23:56:52.887Z,90.90
